Blue River Lodge, Nebraska
Current Conditions -  °F | °C
As of 9:54 AM on Friday 24 Oct 2014 (Local Time) from KLNK Reporting Station
Haze Haze  
Wind Chill: 63°   Ceiling: Unl
Heat Index: 63°   Visibility: 4mi
Dew Point: 58°   Wind: 8mph
Humidity: 84%   Direction: 200°SSW
Pressure: 29.96"   Gusts: NA
Location:  40.5918°N, 96.9749°W
Report Text: KLNK 241454Z 20007KT 4SM HZ CLR 17/14 A2996 RMK AO2 SLP139 T01720144 53001
Loading
Personal Weather Stations






























Interactive Weather Map
Tropical Storm Tracking
New forecast layout! Learn more

10-Day Weather Forecast

Advertisements
Track Severe Weather on mobile